This is the latest recevied weather packets stored in our database for station/object KC3QJO. If no packets are shown the sender has not sent any weather packets the latest 10 day(s).
| Time | Temp. | Humidity | Pressure | Rain* | Wind** | Luminosity | Snow |
|---|---|---|---|---|---|---|---|
| 1777617651 | 5.56° C | 80% | 1011.1 hPa | 0 mm | - | 0 W/m² | - |
| 1777616451 | 6.11° C | 79% | 1011.2 hPa | 0 mm | - | 0 W/m² | - |
| 1777613455 | 6.11° C | 79% | 1011 hPa | 0 mm | - | 0 W/m² | - |
| 1777611055 | 7.22° C | 76% | 1010.9 hPa | 0 mm | - | 0 W/m² | - |
| 1777609855 | 7.22° C | 75% | 1010.9 hPa | 0 mm | - | 0 W/m² | - |
| 1777609255 | 7.78° C | 76% | 1010.8 hPa | 0 mm | - | 0 W/m² | - |
| 1777608354 | 7.78° C | 77% | 1010.8 hPa | 0 mm | - | 0 W/m² | - |
| 1777607755 | 7.78° C | 78% | 1010.6 hPa | 0 mm | - | 0 W/m² | - |
| 1777606551 | 7.78° C | 82% | 1010.7 hPa | 0 mm | - | 0 W/m² | - |
| 1777601152 | 8.33° C | 89% | 1010.6 hPa | 0 mm | - | 0 W/m² | - |
| 1777600894 | 8.33° C | 89% | 1010.5 hPa | 0 mm | - | 0 W/m² | - |
| 1777599953 | 8.89° C | 89% | 1010.3 hPa | 0 mm | - | 0 W/m² | - |
| 1777596954 | 8.89° C | 89% | 1009.5 hPa | 0.76 mm | - | 0 W/m² | - |
| 1777594557 | 8.89° C | 87% | 1009 hPa | 3.56 mm | - | 0 W/m² | - |
| 1777592453 | 10° C | 85% | 1008.6 hPa | 2.79 mm | - | 0 W/m² | - |
| 1777591255 | 11.11° C | 79% | 1008.3 hPa | 1.02 mm | - | 0 W/m² | - |
| 1777588253 | 13.89° C | 59% | 1007 hPa | 0 mm | - | 35 W/m² | - |
| 1777587954 | 13.89° C | 59% | 1006.9 hPa | 0 mm | - | 53 W/m² | - |
| 1777587054 | 14.44° C | 59% | 1006.9 hPa | 0 mm | - | 107 W/m² | - |
| 1777585855 | 14.44° C | 59% | 1006.8 hPa | 0 mm | - | 192 W/m² | - |
| 1777585555 | 14.44° C | 60% | 1006.8 hPa | 0 mm | - | 172 W/m² | - |
| 1777584054 | 14.44° C | 58% | 1006.9 hPa | 0 mm | - | 137 W/m² | - |
| 1777582869 | 14.44° C | 58% | 1006.7 hPa | 0 mm | - | 142 W/m² | - |
| 1777581357 | 14.44° C | 59% | 1006.5 hPa | 0 mm | - | 204 W/m² | - |
| 1777581054 | 14.44° C | 59% | 1006.4 hPa | 0 mm | - | 244 W/m² | - |
* Rain latest hour (hover to see other rain measurements)
** Current wind speed in m/s (hover to see current wind gust speed)